Time;durP1;ratioP1;P1;durP2;ratioP2;P2;SDS_P1;SDS_P2;PMS_P1;PMS_P2;Temp;Humidity;BMP_temperature;BMP_pressure;BME280_temperature;BME280_humidity;BME280_pressure;Samples;Min_cycle;Max_cycle;Signal;HPM_P1;HPM_P2
2022/05/31 00:01:39;;;;;;;3.90;3.15;;;9.10;99.90;;;;;;5034191;28;20124;-81
2022/05/31 00:04:05;;;;;;;3.80;2.97;;;9.10;99.90;;;;;;5050389;28;20079;-81
2022/05/31 00:06:30;;;;;;;4.78;3.15;;;9.10;99.90;;;;;;5049369;28;20069;-81
2022/05/31 00:08:56;;;;;;;3.40;2.80;;;9.10;99.90;;;;;;5051491;28;20489;-82
2022/05/31 00:11:22;;;;;;;3.33;2.70;;;9.00;99.90;;;;;;5034471;28;20041;-81
2022/05/31 00:13:48;;;;;;;3.92;3.08;;;9.00;99.90;;;;;;5033808;28;20124;-81
2022/05/31 00:16:13;;;;;;;4.85;3.22;;;9.00;99.90;;;;;;5051389;28;20125;-81
2022/05/31 00:18:39;;;;;;;3.30;2.65;;;9.00;99.90;;;;;;5051158;28;20044;-82
2022/05/31 00:21:05;;;;;;;5.05;3.10;;;9.00;99.90;;;;;;5051167;28;20552;-81
2022/05/31 00:23:32;;;;;;;3.63;3.22;;;9.00;99.90;;;;;;5050830;28;20066;-81
2022/05/31 00:25:57;;;;;;;4.30;3.58;;;9.00;99.90;;;;;;5050562;28;20041;-81
2022/05/31 00:28:24;;;;;;;4.03;3.10;;;9.00;99.90;;;;;;5051229;28;20033;-81
2022/05/31 00:30:50;;;;;;;3.00;2.70;;;9.00;99.90;;;;;;5034721;28;20072;-81
2022/05/31 00:33:15;;;;;;;4.35;2.78;;;9.00;99.90;;;;;;5050837;28;20495;-81
2022/05/31 00:35:46;;;;;;;4.25;3.20;;;9.00;99.90;;;;;;5049844;28;20082;-82
2022/05/31 00:38:13;;;;;;;4.43;3.30;;;9.10;99.90;;;;;;5050915;28;20037;-81
2022/05/31 00:40:39;;;;;;;5.45;2.42;;;9.10;99.90;;;;;;5050692;28;20119;-81
2022/05/31 00:43:11;;;;;;;2.25;1.92;;;9.10;99.90;;;;;;5051035;28;20041;-82
2022/05/31 00:45:46;;;;;;;2.50;2.00;;;9.20;99.90;;;;;;5050049;28;20037;-81
2022/05/31 00:48:17;;;;;;;2.30;2.03;;;9.20;99.90;;;;;;5050124;28;20075;-82
2022/05/31 00:50:48;;;;;;;3.10;2.35;;;9.20;99.90;;;;;;5050847;28;20048;-82
2022/05/31 00:53:21;;;;;;;2.90;2.47;;;9.20;99.90;;;;;;5050002;28;20546;-82
2022/05/31 00:55:52;;;;;;;3.38;2.60;;;9.20;99.90;;;;;;5050708;28;20058;-81
2022/05/31 00:58:21;;;;;;;3.13;2.20;;;9.20;99.90;;;;;;5050969;28;20041;-81
2022/05/31 01:00:50;;;;;;;2.33;2.08;;;9.20;99.90;;;;;;5050707;28;20110;-81
2022/05/31 01:03:18;;;;;;;2.67;2.03;;;9.20;99.90;;;;;;5053712;28;20055;-82
2022/05/31 01:05:45;;;;;;;2.33;2.13;;;9.30;99.90;;;;;;5052968;28;20033;-81
2022/05/31 01:08:11;;;;;;;3.22;2.33;;;9.20;99.90;;;;;;5037123;28;20447;-82
2022/05/31 01:10:37;;;;;;;3.25;2.20;;;9.30;99.90;;;;;;5053399;28;20089;-82
2022/05/31 01:13:03;;;;;;;2.50;2.30;;;9.20;99.90;;;;;;5053513;28;20051;-81
2022/05/31 01:15:29;;;;;;;3.40;2.40;;;9.30;99.90;;;;;;5052842;28;20048;-82
2022/05/31 01:17:54;;;;;;;4.93;2.17;;;9.30;99.90;;;;;;5053563;28;20041;-82
2022/05/31 01:20:22;;;;;;;2.80;2.20;;;9.20;99.90;;;;;;5053544;28;20466;-82
2022/05/31 01:22:54;;;;;;;2.30;2.10;;;9.20;99.90;;;;;;5053768;28;20090;-82
2022/05/31 01:25:25;;;;;;;3.60;2.30;;;9.20;99.90;;;;;;5053059;28;20060;-81
2022/05/31 01:28:13;;;;;;;2.58;2.33;;;9.20;99.90;;;;;;5037209;28;20044;-81
2022/05/31 01:31:08;;;;;;;3.28;2.20;;;9.20;99.90;;;;;;5031946;28;20124;-82
2022/05/31 01:33:44;;;;;;;2.60;1.98;;;9.20;99.90;;;;;;5032161;28;20080;-82
2022/05/31 01:36:15;;;;;;;4.60;2.50;;;9.20;99.90;;;;;;5033372;28;20041;-82
2022/05/31 01:38:49;;;;;;;4.55;3.22;;;9.20;99.90;;;;;;5048568;28;20518;-82
2022/05/31 01:41:25;;;;;;;6.20;3.65;;;9.30;99.90;;;;;;5053122;28;20041;-82
2022/05/31 01:43:53;;;;;;;4.43;3.88;;;9.20;99.90;;;;;;5052832;28;20123;-82
2022/05/31 01:46:29;;;;;;;3.88;3.38;;;9.20;99.90;;;;;;5053235;28;20091;-82
2022/05/31 01:48:57;;;;;;;5.07;3.88;;;9.20;99.90;;;;;;5052661;28;20041;-82
2022/05/31 01:51:23;;;;;;;4.60;3.70;;;9.30;99.90;;;;;;5036039;28;20049;-82
2022/05/31 01:53:50;;;;;;;4.38;3.97;;;9.30;99.90;;;;;;5035506;28;20517;-82
2022/05/31 01:56:16;;;;;;;4.00;3.50;;;9.30;99.90;;;;;;5036028;28;20056;-82
2022/05/31 01:58:47;;;;;;;5.32;3.90;;;9.30;99.90;;;;;;5052948;28;20037;-82
2022/05/31 02:01:13;;;;;;;6.22;3.95;;;9.30;99.90;;;;;;5053857;28;20044;-82
2022/05/31 02:03:41;;;;;;;3.80;3.40;;;9.30;99.90;;;;;;5052389;28;20037;-82
2022/05/31 02:06:33;;;;;;;4.93;3.08;;;9.30;99.90;;;;;;5052508;28;20083;-81
2022/05/31 02:09:00;;;;;;;3.60;3.15;;;9.30;99.90;;;;;;5052406;28;20526;-82
2022/05/31 02:11:27;;;;;;;6.82;3.38;;;9.30;99.90;;;;;;5035652;28;20025;-81
2022/05/31 02:13:53;;;;;;;4.22;3.17;;;9.30;99.90;;;;;;5035794;28;20037;-81
2022/05/31 02:16:18;;;;;;;5.38;3.33;;;9.30;99.90;;;;;;5052370;28;20048;-81
2022/05/31 02:21:35;;;;;;;5.30;3.50;;;9.30;99.90;;;;;;5039369;28;20049;-82
2022/05/31 02:24:11;;;;;;;6.15;3.45;;;9.30;99.90;;;;;;5051377;28;20045;-82
2022/05/31 02:26:42;;;;;;;4.88;3.90;;;9.30;99.90;;;;;;5035550;28;20090;-82
2022/05/31 02:29:11;;;;;;;4.63;4.00;;;9.30;99.90;;;;;;5035520;28;20146;-82
2022/05/31 02:31:37;;;;;;;7.15;4.20;;;9.30;99.90;;;;;;5051301;28;20047;-81
2022/05/31 02:34:04;;;;;;;5.25;4.72;;;9.30;99.90;;;;;;5050837;28;20132;-82
2022/05/31 02:36:30;;;;;;;7.07;4.60;;;9.30;99.90;;;;;;5051862;28;20037;-81
2022/05/31 02:38:55;;;;;;;6.25;4.40;;;9.30;99.90;;;;;;5051779;28;20033;-82
2022/05/31 02:41:22;;;;;;;5.95;4.60;;;9.30;99.90;;;;;;5052001;28;20095;-82
2022/05/31 02:43:48;;;;;;;7.68;5.80;;;9.30;99.90;;;;;;5051250;28;20043;-82
2022/05/31 02:46:15;;;;;;;5.97;4.95;;;9.30;99.90;;;;;;5052094;28;20033;-82
2022/05/31 02:48:40;;;;;;;7.22;5.03;;;9.30;99.90;;;;;;5051569;28;20041;-81
2022/05/31 02:51:06;;;;;;;6.00;4.50;;;9.30;99.90;;;;;;5051972;28;20029;-81
2022/05/31 02:53:32;;;;;;;8.32;4.60;;;9.30;99.90;;;;;;5051735;28;20029;-81
2022/05/31 02:55:57;;;;;;;5.50;4.40;;;9.30;99.90;;;;;;5051087;28;20067;-81
2022/05/31 02:58:25;;;;;;;5.75;4.50;;;9.30;99.90;;;;;;5051844;28;20036;-82
2022/05/31 03:00:51;;;;;;;6.38;4.95;;;9.30;99.90;;;;;;5051808;28;20033;-81
2022/05/31 03:03:17;;;;;;;6.43;4.38;;;9.30;99.90;;;;;;5051974;28;20082;-81
2022/05/31 03:05:42;;;;;;;6.00;4.72;;;9.30;99.90;;;;;;5050778;28;20124;-81
2022/05/31 03:08:08;;;;;;;6.75;4.93;;;9.30;99.90;;;;;;5051408;28;20188;-82
2022/05/31 03:10:38;;;;;;;5.72;5.00;;;9.30;99.90;;;;;;5034643;28;20051;-82
2022/05/31 03:13:04;;;;;;;6.68;4.85;;;9.30;99.90;;;;;;5051343;28;20060;-82
2022/05/31 03:15:33;;;;;;;7.80;5.35;;;9.30;99.90;;;;;;5050495;28;20081;-82
2022/05/31 03:18:21;;;;;;;6.00;4.82;;;9.20;99.90;;;;;;5051098;28;20537;-81
2022/05/31 03:20:54;;;;;;;5.05;4.55;;;9.30;99.90;;;;;;5051308;28;20044;-82
2022/05/31 03:23:26;;;;;;;5.97;4.97;;;9.30;99.90;;;;;;5051112;28;20531;-81
2022/05/31 03:25:53;;;;;;;6.78;5.05;;;9.30;99.90;;;;;;5049764;28;20041;-82
2022/05/31 03:28:21;;;;;;;5.90;5.25;;;9.30;99.90;;;;;;5051081;28;20079;-82
2022/05/31 03:30:46;;;;;;;8.00;4.93;;;9.30;99.90;;;;;;5050751;28;20056;-82
2022/05/31 03:33:14;;;;;;;5.85;5.25;;;9.30;99.90;;;;;;5050916;28;20041;-81
2022/05/31 03:35:41;;;;;;;7.07;5.38;;;9.30;99.90;;;;;;5049992;28;20080;-81
2022/05/31 03:38:07;;;;;;;6.60;5.00;;;9.30;99.90;;;;;;5051104;28;20040;-81
2022/05/31 03:43:16;;;;;;;6.10;5.50;;;9.30;99.90;;;;;;5050646;28;20044;-82
2022/05/31 03:45:43;;;;;;;5.97;4.80;;;9.30;99.90;;;;;;5050271;28;20049;-81
2022/05/31 03:48:11;;;;;;;8.65;5.47;;;9.30;99.90;;;;;;5050990;28;20041;-81
2022/05/31 03:50:39;;;;;;;7.22;5.65;;;9.30;99.90;;;;;;5051579;28;20465;-82
2022/05/31 03:53:06;;;;;;;6.50;5.35;;;9.30;99.90;;;;;;5050762;28;20165;-82
2022/05/31 03:55:38;;;;;;;6.47;5.43;;;9.30;99.90;;;;;;5033211;28;20044;-81
2022/05/31 03:58:04;;;;;;;7.03;5.60;;;9.30;99.90;;;;;;5050510;28;20041;-81
2022/05/31 04:00:30;;;;;;;6.90;5.50;;;9.30;99.90;;;;;;5050312;28;20040;-82
2022/05/31 04:02:55;;;;;;;7.20;5.72;;;9.30;99.90;;;;;;5050565;28;20041;-82
2022/05/31 04:05:21;;;;;;;6.68;5.60;;;9.30;99.90;;;;;;5033369;28;20103;-82
2022/05/31 04:07:50;;;;;;;5.72;5.13;;;9.40;99.90;;;;;;5050534;28;20041;-81
2022/05/31 04:10:16;;;;;;;8.80;5.70;;;9.30;99.90;;;;;;5050834;28;20444;-82
2022/05/31 04:12:42;;;;;;;7.93;5.65;;;9.30;99.90;;;;;;5050358;28;20037;-81
2022/05/31 04:15:07;;;;;;;8.68;6.28;;;9.40;99.90;;;;;;5033174;28;20475;-81
2022/05/31 04:17:33;;;;;;;6.88;5.75;;;9.40;99.90;;;;;;5050624;28;20411;-82
2022/05/31 04:19:59;;;;;;;8.07;6.35;;;9.50;99.90;;;;;;5033821;28;20072;-82
2022/05/31 04:22:24;;;;;;;8.10;5.65;;;9.40;99.90;;;;;;5050249;28;20083;-81
2022/05/31 04:24:54;;;;;;;7.22;5.80;;;9.40;99.90;;;;;;5049520;28;20033;-82
2022/05/31 04:27:21;;;;;;;7.25;5.78;;;9.40;99.90;;;;;;5050559;28;20110;-81
2022/05/31 04:29:47;;;;;;;6.72;5.70;;;9.40;99.90;;;;;;5034091;28;20441;-81
2022/05/31 04:32:14;;;;;;;6.63;5.70;;;9.40;99.90;;;;;;5050240;28;20045;-81
2022/05/31 04:34:41;;;;;;;7.05;5.35;;;9.40;99.90;;;;;;5033154;28;20048;-81
2022/05/31 04:37:07;;;;;;;6.72;5.93;;;9.40;99.90;;;;;;5052550;28;20045;-81
2022/05/31 04:39:32;;;;;;;6.57;5.88;;;9.40;99.90;;;;;;5037535;28;20395;-81
2022/05/31 04:41:58;;;;;;;9.48;5.90;;;9.40;99.90;;;;;;5054293;28;20033;-80
2022/05/31 04:44:24;;;;;;;6.13;5.53;;;9.40;99.90;;;;;;5053663;28;20044;-81
2022/05/31 04:46:49;;;;;;;6.53;5.88;;;9.50;99.90;;;;;;5054246;28;20033;-80
2022/05/31 04:49:15;;;;;;;10.20;6.00;;;9.50;99.90;;;;;;5054506;28;20087;-82
2022/05/31 04:51:41;;;;;;;6.82;5.78;;;9.50;99.90;;;;;;5054283;28;20037;-81
2022/05/31 04:54:07;;;;;;;7.15;6.00;;;9.50;99.90;;;;;;5053411;28;20032;-81
2022/05/31 04:56:33;;;;;;;6.63;5.85;;;9.60;99.90;;;;;;5054414;28;20395;-81
2022/05/31 04:58:59;;;;;;;7.25;5.80;;;9.60;99.90;;;;;;5053728;28;20498;-81
2022/05/31 05:01:26;;;;;;;7.35;5.78;;;9.60;99.90;;;;;;5037310;28;20123;-81
2022/05/31 05:03:53;;;;;;;7.47;5.65;;;9.60;99.90;;;;;;5053391;28;20037;-81
2022/05/31 05:06:20;;;;;;;6.60;5.85;;;9.70;99.90;;;;;;5054547;28;20044;-81
2022/05/31 05:08:46;;;;;;;8.25;6.15;;;9.70;99.90;;;;;;5054160;28;20053;-80
2022/05/31 05:11:14;;;;;;;7.53;5.97;;;9.70;99.90;;;;;;5037820;28;20051;-81
2022/05/31 05:13:41;;;;;;;6.93;5.95;;;9.70;99.90;;;;;;5053844;28;20036;-81
2022/05/31 05:16:08;;;;;;;7.07;6.22;;;9.80;99.90;;;;;;5053197;28;20044;-81
2022/05/31 05:18:34;;;;;;;7.18;6.18;;;9.80;99.90;;;;;;5053674;28;20412;-82
2022/05/31 05:21:02;;;;;;;8.98;6.55;;;9.90;99.90;;;;;;5053798;28;20059;-80
2022/05/31 05:23:28;;;;;;;8.38;6.72;;;9.90;99.90;;;;;;5053734;28;20063;-82
2022/05/31 05:25:55;;;;;;;8.65;6.90;;;10.00;99.90;;;;;;5052729;28;20045;-81
2022/05/31 05:31:06;;;;;;;7.53;6.35;;;10.00;99.90;;;;;;5052874;28;20045;-81
2022/05/31 05:33:32;;;;;;;8.98;7.05;;;10.00;99.90;;;;;;5052303;28;20098;-81
2022/05/31 05:35:58;;;;;;;7.78;6.50;;;10.00;99.90;;;;;;5051389;28;20112;-81
2022/05/31 05:38:24;;;;;;;8.70;6.97;;;10.10;99.90;;;;;;5050203;28;20535;-82
2022/05/31 05:40:50;;;;;;;9.52;6.90;;;10.10;99.90;;;;;;5048950;28;20044;-81
2022/05/31 05:43:16;;;;;;;7.88;7.05;;;10.10;99.90;;;;;;5052262;28;20116;-82
2022/05/31 05:45:42;;;;;;;10.38;7.50;;;10.20;99.90;;;;;;5051862;28;20467;-81
2022/05/31 05:48:08;;;;;;;9.32;6.90;;;10.20;99.90;;;;;;5049988;28;20088;-81
2022/05/31 05:50:35;;;;;;;9.73;7.07;;;10.20;99.90;;;;;;5052070;28;20083;-81
2022/05/31 05:53:04;;;;;;;7.72;6.85;;;10.30;99.90;;;;;;5025157;28;20092;-82
2022/05/31 05:55:30;;;;;;;8.10;7.07;;;10.30;99.90;;;;;;5051644;28;20132;-82
2022/05/31 05:57:55;;;;;;;8.70;7.15;;;10.40;99.90;;;;;;5050859;28;20069;-82
2022/05/31 06:00:22;;;;;;;9.63;7.20;;;10.40;99.90;;;;;;5051040;28;20510;-82
2022/05/31 06:02:54;;;;;;;8.18;7.07;;;10.50;99.90;;;;;;5052238;28;20044;-81
2022/05/31 06:05:26;;;;;;;9.05;7.20;;;10.50;99.90;;;;;;5048025;28;20057;-81
2022/05/31 06:08:01;;;;;;;10.48;7.80;;;10.60;99.90;;;;;;5053102;28;20441;-82
2022/05/31 06:10:34;;;;;;;8.05;6.90;;;10.60;99.90;;;;;;5052907;28;20434;-81
2022/05/31 06:13:25;;;;;;;8.43;7.13;;;10.70;99.90;;;;;;5042454;28;20056;-82
2022/05/31 06:15:55;;;;;;;8.25;7.45;;;10.80;99.90;;;;;;5051908;28;20041;-82
2022/05/31 06:18:25;;;;;;;10.70;7.20;;;10.80;99.90;;;;;;5052539;28;20072;-82
2022/05/31 06:21:04;;;;;;;7.85;7.05;;;10.90;99.90;;;;;;5053743;28;20085;-82
2022/05/31 06:23:30;;;;;;;8.38;7.18;;;11.00;99.90;;;;;;5052267;28;20037;-82
2022/05/31 06:25:57;;;;;;;28.67;8.27;;;11.10;99.90;;;;;;5046710;28;20043;-82
2022/05/31 06:28:22;;;;;;;8.52;7.03;;;11.20;99.90;;;;;;5036992;28;20063;-82
2022/05/31 06:30:48;;;;;;;8.73;6.85;;;11.30;99.90;;;;;;5039224;28;20144;-83
2022/05/31 06:33:13;;;;;;;7.65;6.78;;;11.30;99.90;;;;;;5035275;28;20179;-83
2022/05/31 06:35:39;;;;;;;9.85;6.70;;;11.40;99.90;;;;;;5034972;28;20045;-82
2022/05/31 06:38:05;;;;;;;7.03;6.25;;;11.40;99.90;;;;;;5055087;28;20041;-83
2022/05/31 06:40:30;;;;;;;9.68;6.20;;;11.40;99.90;;;;;;5036418;28;20040;-81
2022/05/31 06:42:58;;;;;;;7.22;6.05;;;11.50;99.90;;;;;;5036610;28;20037;-84
2022/05/31 06:45:25;;;;;;;8.50;6.28;;;11.60;99.90;;;;;;5037361;28;20118;-84
2022/05/31 06:47:50;;;;;;;6.50;5.65;;;11.60;99.90;;;;;;5048237;28;20037;-84
2022/05/31 06:50:16;;;;;;;9.95;6.55;;;11.70;99.90;;;;;;5046361;28;20036;-83
2022/05/31 06:58:10;;;;;;;8.00;5.28;;;11.90;99.90;;;;;;5050440;28;20044;-84
2022/05/31 07:00:35;;;;;;;6.70;5.32;;;11.90;99.90;;;;;;5048057;28;20036;-84
2022/05/31 07:03:01;;;;;;;7.90;5.88;;;12.00;99.90;;;;;;5043201;28;20041;-84
2022/05/31 07:05:27;;;;;;;7.68;5.22;;;12.10;99.90;;;;;;5046889;28;20049;-83
2022/05/31 07:07:54;;;;;;;6.55;5.32;;;12.10;99.90;;;;;;5027783;28;20065;-83
2022/05/31 07:10:21;;;;;;;6.93;5.32;;;12.20;99.90;;;;;;5030107;28;20044;-85
2022/05/31 07:12:46;;;;;;;6.57;5.25;;;12.30;99.90;;;;;;5045179;28;20097;-83
2022/05/31 07:15:13;;;;;;;9.23;5.13;;;12.50;99.90;;;;;;5062255;28;20112;-83
2022/05/31 07:17:39;;;;;;;7.93;4.95;;;12.60;99.90;;;;;;5045977;28;20060;-83
2022/05/31 07:20:09;;;;;;;7.28;5.28;;;12.70;99.90;;;;;;5046358;28;20040;-82
2022/05/31 07:22:36;;;;;;;5.90;5.05;;;12.70;99.90;;;;;;5046611;28;20041;-83
2022/05/31 07:25:02;;;;;;;6.68;5.22;;;12.80;99.90;;;;;;5045855;28;20407;-83
2022/05/31 07:27:28;;;;;;;8.15;5.25;;;12.90;99.90;;;;;;5046851;28;20037;-84
2022/05/31 07:29:54;;;;;;;6.68;5.07;;;13.00;99.90;;;;;;5044803;28;20040;-83
2022/05/31 07:32:20;;;;;;;7.45;5.20;;;13.10;99.90;;;;;;5046666;28;20047;-83
2022/05/31 07:34:46;;;;;;;6.03;4.70;;;13.20;99.90;;;;;;5028919;28;20051;-83
2022/05/31 07:37:12;;;;;;;5.68;4.75;;;13.30;99.90;;;;;;5046782;28;20522;-82
2022/05/31 07:39:38;;;;;;;5.80;4.53;;;13.40;99.90;;;;;;5044999;28;20043;-83
2022/05/31 07:42:04;;;;;;;7.38;4.72;;;13.50;99.90;;;;;;5064070;28;20033;-83
2022/05/31 07:44:30;;;;;;;7.00;4.40;;;13.60;99.90;;;;;;5045244;28;20120;-84
2022/05/31 07:46:56;;;;;;;6.05;5.00;;;13.60;99.90;;;;;;5032430;28;20040;-81
2022/05/31 07:49:22;;;;;;;9.35;4.70;;;13.60;99.90;;;;;;5037777;28;20033;-83
2022/05/31 07:51:48;;;;;;;7.50;4.80;;;13.70;99.90;;;;;;5054585;28;20387;-85
2022/05/31 07:54:13;;;;;;;7.28;5.15;;;13.70;99.90;;;;;;5036047;28;20090;-83
2022/05/31 07:56:39;;;;;;;7.90;4.50;;;14.00;99.90;;;;;;5054217;28;20104;-83
2022/05/31 07:59:05;;;;;;;7.57;4.18;;;14.20;99.90;;;;;;5053739;28;20362;-85
2022/05/31 08:01:30;;;;;;;5.53;4.07;;;14.40;99.90;;;;;;5050690;28;20044;-84
2022/05/31 08:03:56;;;;;;;6.32;4.25;;;14.60;99.90;;;;;;5050059;28;20037;-84
2022/05/31 08:06:24;;;;;;;7.75;4.50;;;14.70;99.90;;;;;;5050594;28;20033;-82
2022/05/31 08:08:50;;;;;;;5.28;3.97;;;14.80;99.90;;;;;;5050897;28;20491;-83
2022/05/31 08:11:42;;;;;;;6.88;4.20;;;15.00;99.90;;;;;;5053113;28;20100;-81
2022/05/31 08:14:07;;;;;;;9.43;4.50;;;15.10;99.90;;;;;;5036575;28;20057;-84
2022/05/31 08:16:34;;;;;;;5.40;3.90;;;15.20;99.90;;;;;;5051035;28;20036;-83
2022/05/31 08:19:01;;;;;;;7.00;4.07;;;15.20;99.90;;;;;;5067035;28;20041;-84
2022/05/31 08:21:30;;;;;;;5.47;3.85;;;15.40;99.90;;;;;;5054532;28;20048;-85
2022/05/31 08:24:18;;;;;;;5.00;3.70;;;15.50;99.90;;;;;;5052940;28;20045;-84
2022/05/31 08:26:43;;;;;;;8.13;4.15;;;15.60;99.90;;;;;;5064720;28;20117;-85
2022/05/31 08:29:09;;;;;;;8.20;4.05;;;15.70;99.90;;;;;;5052781;28;20119;-83
2022/05/31 08:31:36;;;;;;;8.25;4.05;;;15.80;99.90;;;;;;5071094;28;20104;-84
2022/05/31 08:34:04;;;;;;;5.50;3.50;;;15.80;99.90;;;;;;5049291;28;20028;-85
2022/05/31 08:36:30;;;;;;;5.45;3.90;;;15.80;99.90;;;;;;5047093;28;20734;-83
2022/05/31 08:38:55;;;;;;;8.43;3.90;;;15.90;99.90;;;;;;5053744;28;20108;-84
2022/05/31 08:41:45;;;;;;;6.22;4.00;;;15.80;99.90;;;;;;5049640;28;20098;-83
2022/05/31 08:44:29;;;;;;;6.90;3.85;;;15.90;99.90;;;;;;5032022;28;20060;-84
2022/05/31 08:47:16;;;;;;;6.85;4.00;;;15.80;99.90;;;;;;5049947;28;20041;-83
2022/05/31 08:52:51;;;;;;;6.22;3.90;;;15.90;99.90;;;;;;5038398;28;20045;-84
2022/05/31 08:58:13;;;;;;;5.53;3.65;;;16.30;99.90;;;;;;5048906;28;20092;-84
2022/05/31 09:00:42;;;;;;;6.88;3.60;;;16.40;99.90;;;;;;5048557;28;20058;-84
2022/05/31 09:03:19;;;;;;;5.95;3.20;;;16.50;99.90;;;;;;5047038;28;20119;-84
2022/05/31 09:06:07;;;;;;;5.25;3.17;;;16.60;99.90;;;;;;5048728;28;20041;-84
2022/05/31 09:09:01;;;;;;;4.78;2.90;;;16.60;99.90;;;;;;5048382;28;20045;-83
2022/05/31 09:11:38;;;;;;;5.07;2.75;;;16.70;99.90;;;;;;5047636;28;20049;-84
2022/05/31 09:14:25;;;;;;;6.53;3.00;;;16.80;99.90;;;;;;5050373;28;20351;-84
2022/05/31 09:17:12;;;;;;;5.75;2.25;;;16.90;99.90;;;;;;5046132;28;20032;-85
2022/05/31 09:20:14;;;;;;;6.05;2.30;;;16.80;99.90;;;;;;5046590;28;21730;-85
2022/05/31 09:22:44;;;;;;;4.38;2.33;;;16.80;99.90;;;;;;5027027;28;20053;-84
2022/05/31 09:25:10;;;;;;;3.38;2.10;;;16.80;99.90;;;;;;5046428;28;20640;-85
2022/05/31 09:27:44;;;;;;;4.40;2.22;;;16.70;99.90;;;;;;5047527;28;20040;-85
2022/05/31 09:30:25;;;;;;;4.93;2.15;;;16.70;99.90;;;;;;5045989;28;20147;-84
2022/05/31 09:32:59;;;;;;;5.07;2.38;;;16.80;99.90;;;;;;5043662;28;20403;-84
2022/05/31 09:35:53;;;;;;;5.70;2.60;;;16.80;99.90;;;;;;5045369;28;20095;-84
2022/05/31 09:38:59;;;;;;;6.95;2.45;;;16.70;99.90;;;;;;5045188;28;20041;-86
2022/05/31 09:41:33;;;;;;;4.18;2.55;;;16.60;99.90;;;;;;5046710;28;20044;-84
2022/05/31 09:44:15;;;;;;;5.00;2.40;;;16.60;99.90;;;;;;5045478;28;20056;-86
2022/05/31 09:46:47;;;;;;;7.63;2.33;;;16.60;99.90;;;;;;5048914;28;20116;-86
2022/05/31 09:49:24;;;;;;;5.72;3.70;;;16.80;99.90;;;;;;5052470;28;20044;-85
2022/05/31 09:51:50;;;;;;;7.15;4.28;;;17.00;99.90;;;;;;5052010;28;20033;-85
2022/05/31 09:57:06;;;;;;;7.03;4.00;;;17.20;99.90;;;;;;5050559;28;20037;-85
2022/05/31 09:59:39;;;;;;;7.30;4.18;;;17.10;99.90;;;;;;5039940;28;20355;-85
2022/05/31 10:02:25;;;;;;;7.00;4.82;;;17.00;99.90;;;;;;5042521;28;20033;-86
2022/05/31 10:05:15;;;;;;;6.35;4.55;;;17.00;99.90;;;;;;5044214;28;20131;-85
2022/05/31 10:07:41;;;;;;;9.63;5.72;;;17.00;99.90;;;;;;5049832;28;20037;-85
2022/05/31 10:10:16;;;;;;;6.35;4.60;;;17.00;99.90;;;;;;5050749;28;20430;-83
2022/05/31 10:12:49;;;;;;;9.02;5.05;;;16.90;99.90;;;;;;5051752;28;20067;-86
2022/05/31 10:15:40;;;;;;;9.75;4.72;;;16.90;99.90;;;;;;5051147;28;20048;-86
2022/05/31 10:18:08;;;;;;;9.85;4.60;;;17.00;99.90;;;;;;5040613;28;20094;-85
2022/05/31 10:20:34;;;;;;;9.63;4.20;;;17.10;99.90;;;;;;5051576;28;20495;-85
2022/05/31 10:23:13;;;;;;;7.07;4.18;;;17.00;99.90;;;;;;5048435;28;20052;-85
2022/05/31 10:25:55;;;;;;;4.63;3.25;;;17.10;99.90;;;;;;5049804;28;20049;-85
2022/05/31 10:28:31;;;;;;;7.68;3.50;;;17.00;99.90;;;;;;5034349;28;20052;-86
2022/05/31 10:31:03;;;;;;;7.28;3.47;;;16.90;99.90;;;;;;5051289;28;20052;-86
2022/05/31 10:33:31;;;;;;;8.48;3.80;;;16.90;99.90;;;;;;5050202;28;20111;-85
2022/05/31 10:36:18;;;;;;;7.75;3.60;;;16.70;99.90;;;;;;5049825;28;20049;-85
2022/05/31 10:38:46;;;;;;;6.45;3.63;;;16.70;99.90;;;;;;5051445;28;20033;-85
2022/05/31 10:41:21;;;;;;;6.20;3.20;;;16.70;99.90;;;;;;5047027;28;20045;-87
2022/05/31 10:43:51;;;;;;;7.00;3.63;;;16.80;99.90;;;;;;5050767;28;20120;-86
2022/05/31 10:46:28;;;;;;;6.22;3.50;;;16.90;99.90;;;;;;5051417;28;20085;-84
2022/05/31 10:48:56;;;;;;;6.43;3.30;;;17.00;99.90;;;;;;5051074;28;20039;-84
2022/05/31 10:51:57;;;;;;;7.63;3.28;;;17.10;99.90;;;;;;5049734;28;20029;-85
2022/05/31 10:54:47;;;;;;;10.75;3.53;;;17.30;99.90;;;;;;5037229;28;20068;-86
2022/05/31 10:57:39;;;;;;;5.70;3.25;;;17.50;99.90;;;;;;5041987;28;20056;-85
2022/05/31 11:00:40;;;;;;;6.32;3.13;;;17.70;99.90;;;;;;5032828;28;20072;-86
2022/05/31 11:03:09;;;;;;;7.28;3.13;;;17.80;99.90;;;;;;5020425;28;20044;-84
2022/05/31 11:05:59;;;;;;;6.32;3.28;;;17.80;99.90;;;;;;5072661;28;20041;-83
2022/05/31 11:12:04;;;;;;;5.60;2.75;;;18.10;99.90;;;;;;5047308;28;20056;-83
2022/05/31 11:14:51;;;;;;;4.80;3.15;;;18.10;99.90;;;;;;5046582;28;20045;-85
2022/05/31 11:17:42;;;;;;;7.15;3.08;;;18.10;99.90;;;;;;5044464;28;20033;-84
2022/05/31 11:20:23;;;;;;;6.70;3.60;;;18.20;99.90;;;;;;5048076;28;20095;-84
2022/05/31 11:23:22;;;;;;;7.18;2.95;;;18.30;99.90;;;;;;5049099;28;20037;-84
2022/05/31 11:26:25;;;;;;;5.50;3.20;;;18.60;99.90;;;;;;5046710;28;20049;-85
2022/05/31 11:28:58;;;;;;;5.57;3.42;;;18.90;99.90;;;;;;5041483;28;20041;-84
2022/05/31 11:31:32;;;;;;;3.97;2.80;;;19.20;99.90;;;;;;5050749;28;20082;-83
2022/05/31 11:34:29;;;;;;;7.05;3.60;;;19.50;99.90;;;;;;5046661;28;20171;-83
2022/05/31 11:37:09;;;;;;;11.85;4.50;;;19.40;99.90;;;;;;5042279;28;20041;-82
2022/05/31 11:39:42;;;;;;;8.80;4.10;;;19.40;99.90;;;;;;5049453;28;20498;-84
2022/05/31 11:42:33;;;;;;;5.35;3.80;;;19.30;99.90;;;;;;5045763;28;20064;-83
2022/05/31 11:45:17;;;;;;;6.50;3.53;;;19.30;99.90;;;;;;5026989;28;20132;-83
2022/05/31 11:48:14;;;;;;;7.32;4.20;;;19.40;99.90;;;;;;5049761;28;20033;-84
2022/05/31 11:51:03;;;;;;;6.15;3.90;;;19.60;99.90;;;;;;5050016;28;20044;-84
2022/05/31 11:53:31;;;;;;;5.43;3.65;;;19.60;99.90;;;;;;5048831;28;20095;-83
2022/05/31 11:56:07;;;;;;;7.55;3.42;;;19.50;99.90;;;;;;5030016;28;20055;-84
2022/05/31 11:58:46;;;;;;;5.60;3.00;;;19.40;99.90;;;;;;5049054;28;20077;-84
2022/05/31 12:01:22;;;;;;;6.80;3.67;;;19.20;99.90;;;;;;5045858;28;20095;-84
2022/05/31 12:04:14;;;;;;;5.63;3.38;;;19.00;99.90;;;;;;5043882;28;20466;-84
2022/05/31 12:06:47;;;;;;;6.82;2.90;;;18.90;99.90;;;;;;5047936;28;20040;-84
2022/05/31 12:09:21;;;;;;;6.03;3.00;;;18.70;99.90;;;;;;5050163;28;20033;-84
2022/05/31 12:11:59;;;;;;;4.80;2.80;;;18.60;99.90;;;;;;5032288;28;20045;-85
2022/05/31 12:14:28;;;;;;;6.82;2.85;;;18.50;99.90;;;;;;5049528;28;20087;-84
2022/05/31 12:16:55;;;;;;;5.78;3.30;;;18.40;99.90;;;;;;5049910;28;20510;-84
2022/05/31 12:19:43;;;;;;;4.70;2.85;;;18.30;99.90;;;;;;5050083;28;20136;-84
2022/05/31 12:22:21;;;;;;;5.68;2.67;;;18.30;99.90;;;;;;5049706;28;20041;-84
2022/05/31 12:25:00;;;;;;;4.53;2.72;;;18.30;99.50;;;;;;5048865;28;20593;-84
2022/05/31 12:27:47;;;;;;;5.18;2.72;;;18.20;99.90;;;;;;5049829;28;20124;-84
2022/05/31 12:30:20;;;;;;;4.45;2.88;;;18.20;99.90;;;;;;5046072;28;20044;-84
2022/05/31 12:32:48;;;;;;;5.73;2.63;;;18.20;99.90;;;;;;5023419;28;20041;-84
2022/05/31 12:35:32;;;;;;;4.68;2.55;;;18.20;99.90;;;;;;5037551;28;20048;-84
2022/05/31 12:38:00;;;;;;;4.20;3.03;;;18.20;98.40;;;;;;5045296;28;20033;-85
2022/05/31 12:40:32;;;;;;;6.22;3.03;;;18.10;99.90;;;;;;5030309;28;20072;-83
2022/05/31 12:42:58;;;;;;;4.10;2.50;;;18.10;99.60;;;;;;5024808;28;20578;-85
2022/05/31 12:45:37;;;;;;;6.07;3.08;;;18.10;99.90;;;;;;5046583;28;20048;-84
2022/05/31 12:48:15;;;;;;;5.90;3.20;;;18.00;99.90;;;;;;5046880;28;20079;-84
2022/05/31 12:50:51;;;;;;;4.63;2.90;;;18.00;99.90;;;;;;5062440;28;20055;-84
2022/05/31 12:53:43;;;;;;;4.75;2.67;;;17.80;98.10;;;;;;5048988;28;20129;-84
2022/05/31 12:56:30;;;;;;;5.95;2.30;;;17.70;98.90;;;;;;5049126;28;20040;-84
2022/05/31 12:58:57;;;;;;;4.97;2.25;;;17.70;99.80;;;;;;5045213;28;20033;-84
2022/05/31 13:01:22;;;;;;;4.80;2.80;;;17.60;99.90;;;;;;5053131;28;20044;-84
2022/05/31 13:03:54;;;;;;;5.65;2.50;;;17.70;99.90;;;;;;5039001;28;20037;-84
2022/05/31 13:06:29;;;;;;;6.40;2.47;;;17.70;99.90;;;;;;5035091;28;20080;-83
2022/05/31 13:09:00;;;;;;;4.82;2.83;;;17.70;99.90;;;;;;5045587;28;20163;-84
2022/05/31 13:20:33;;;;;;;8.15;3.17;;;17.70;99.90;;;;;;5049895;28;20414;-85
2022/05/31 13:23:09;;;;;;;4.32;3.00;;;17.60;99.90;;;;;;5031633;28;20529;-85
2022/05/31 13:26:02;;;;;;;5.57;3.03;;;17.60;99.90;;;;;;5050668;28;20049;-84
2022/05/31 13:28:39;;;;;;;5.68;3.45;;;17.50;99.30;;;;;;5052243;28;20051;-84
2022/05/31 13:31:21;;;;;;;5.32;3.00;;;17.40;99.30;;;;;;5052461;28;20044;-84
2022/05/31 13:34:06;;;;;;;3.78;2.53;;;17.40;98.90;;;;;;5054183;28;20422;-84
2022/05/31 13:36:41;;;;;;;6.82;3.15;;;17.40;99.50;;;;;;5049908;28;20033;-84
2022/05/31 13:39:10;;;;;;;5.72;3.00;;;17.40;99.90;;;;;;5031968;28;20029;-84
2022/05/31 13:41:51;;;;;;;5.70;2.88;;;17.40;99.90;;;;;;5039155;28;20033;-84
2022/05/31 13:44:24;;;;;;;5.97;3.00;;;17.40;99.90;;;;;;5048634;28;20045;-85
2022/05/31 13:46:52;;;;;;;6.38;3.70;;;17.40;99.90;;;;;;5032894;28;20457;-84
2022/05/31 13:49:25;;;;;;;5.07;3.15;;;17.40;99.90;;;;;;5046796;28;20102;-84